sensor_id;sensor_type;location;lat;lon;timestamp;temperature;humidity
22442;DHT22;11388;54.456;9.752;2022-10-24T00:02:07;14.80;99.90
22442;DHT22;11388;54.456;9.752;2022-10-24T00:04:37;14.80;99.90
22442;DHT22;11388;54.456;9.752;2022-10-24T00:07:04;14.80;99.90
22442;DHT22;11388;54.456;9.752;2022-10-24T00:09:31;14.80;99.90
22442;DHT22;11388;54.456;9.752;2022-10-24T00:11:57;14.80;99.90
22442;DHT22;11388;54.456;9.752;2022-10-24T00:14:23;14.80;99.90
22442;DHT22;11388;54.456;9.752;2022-10-24T00:16:48;14.80;99.90
22442;DHT22;11388;54.456;9.752;2022-10-24T00:19:14;14.80;99.90
22442;DHT22;11388;54.456;9.752;2022-10-24T00:24:48;14.80;99.90
22442;DHT22;11388;54.456;9.752;2022-10-24T00:27:13;14.90;99.90
22442;DHT22;11388;54.456;9.752;2022-10-24T00:29:39;14.90;99.90
22442;DHT22;11388;54.456;9.752;2022-10-24T00:32:05;14.90;99.90
22442;DHT22;11388;54.456;9.752;2022-10-24T00:34:30;14.80;99.90
22442;DHT22;11388;54.456;9.752;2022-10-24T00:36:56;14.90;99.90
22442;DHT22;11388;54.456;9.752;2022-10-24T00:39:22;14.90;99.90
22442;DHT22;11388;54.456;9.752;2022-10-24T00:41:48;14.90;99.90
22442;DHT22;11388;54.456;9.752;2022-10-24T00:44:18;14.90;99.90
22442;DHT22;11388;54.456;9.752;2022-10-24T00:47:07;14.90;99.90
22442;DHT22;11388;54.456;9.752;2022-10-24T00:52:07;14.80;99.90
22442;DHT22;11388;54.456;9.752;2022-10-24T00:54:34;14.90;99.90
22442;DHT22;11388;54.456;9.752;2022-10-24T00:57:12;14.90;99.90
22442;DHT22;11388;54.456;9.752;2022-10-24T00:59:41;14.80;99.90
22442;DHT22;11388;54.456;9.752;2022-10-24T01:02:08;14.80;99.90
22442;DHT22;11388;54.456;9.752;2022-10-24T01:04:34;14.80;99.90
22442;DHT22;11388;54.456;9.752;2022-10-24T01:07:28;14.90;99.90
22442;DHT22;11388;54.456;9.752;2022-10-24T01:10:15;14.90;99.90
22442;DHT22;11388;54.456;9.752;2022-10-24T01:31:48;14.90;99.90
22442;DHT22;11388;54.456;9.752;2022-10-24T01:34:29;14.90;99.90
22442;DHT22;11388;54.456;9.752;2022-10-24T01:39:23;14.90;99.90
22442;DHT22;11388;54.456;9.752;2022-10-24T01:41:53;14.90;99.90
22442;DHT22;11388;54.456;9.752;2022-10-24T01:44:25;14.90;99.90
22442;DHT22;11388;54.456;9.752;2022-10-24T01:47:05;14.90;99.90
22442;DHT22;11388;54.456;9.752;2022-10-24T01:49:35;14.90;99.90
22442;DHT22;11388;54.456;9.752;2022-10-24T01:52:05;14.90;99.90
22442;DHT22;11388;54.456;9.752;2022-10-24T01:54:32;14.90;99.90
22442;DHT22;11388;54.456;9.752;2022-10-24T01:56:58;14.90;99.90
22442;DHT22;11388;54.456;9.752;2022-10-24T02:02:12;14.90;99.90
22442;DHT22;11388;54.456;9.752;2022-10-24T02:04:46;14.90;99.90
22442;DHT22;11388;54.456;9.752;2022-10-24T02:07:13;14.90;99.90
22442;DHT22;11388;54.456;9.752;2022-10-24T02:09:42;14.90;99.90
22442;DHT22;11388;54.456;9.752;2022-10-24T02:12:37;14.90;99.90
22442;DHT22;11388;54.456;9.752;2022-10-24T02:15:12;15.00;99.90
22442;DHT22;11388;54.456;9.752;2022-10-24T02:17:38;15.00;99.90
22442;DHT22;11388;54.456;9.752;2022-10-24T02:20:04;15.00;99.90
22442;DHT22;11388;54.456;9.752;2022-10-24T02:25:08;15.10;99.90
22442;DHT22;11388;54.456;9.752;2022-10-24T02:30:25;14.90;99.90
22442;DHT22;11388;54.456;9.752;2022-10-24T02:32:57;14.90;99.90
22442;DHT22;11388;54.456;9.752;2022-10-24T02:35:26;14.90;99.90
22442;DHT22;11388;54.456;9.752;2022-10-24T02:38:02;14.80;99.90
22442;DHT22;11388;54.456;9.752;2022-10-24T02:40:29;14.90;99.90
22442;DHT22;11388;54.456;9.752;2022-10-24T02:42:57;14.90;99.90
22442;DHT22;11388;54.456;9.752;2022-10-24T02:45:24;14.90;99.90
22442;DHT22;11388;54.456;9.752;2022-10-24T02:47:54;14.90;99.90
22442;DHT22;11388;54.456;9.752;2022-10-24T02:50:21;14.90;99.90
22442;DHT22;11388;54.456;9.752;2022-10-24T02:52:47;14.80;99.90
22442;DHT22;11388;54.456;9.752;2022-10-24T02:55:13;14.90;99.90
22442;DHT22;11388;54.456;9.752;2022-10-24T02:57:39;14.90;99.90
22442;DHT22;11388;54.456;9.752;2022-10-24T03:00:06;14.80;99.90
22442;DHT22;11388;54.456;9.752;2022-10-24T03:02:32;14.90;99.90
22442;DHT22;11388;54.456;9.752;2022-10-24T03:04:58;14.90;99.90
22442;DHT22;11388;54.456;9.752;2022-10-24T03:07:23;14.90;99.90
22442;DHT22;11388;54.456;9.752;2022-10-24T03:09:49;14.90;99.90
22442;DHT22;11388;54.456;9.752;2022-10-24T03:12:15;14.90;99.90
22442;DHT22;11388;54.456;9.752;2022-10-24T03:14:41;15.00;99.90
22442;DHT22;11388;54.456;9.752;2022-10-24T03:17:07;14.90;99.90
22442;DHT22;11388;54.456;9.752;2022-10-24T03:19:32;14.90;99.90
22442;DHT22;11388;54.456;9.752;2022-10-24T03:21:58;14.90;99.90
22442;DHT22;11388;54.456;9.752;2022-10-24T03:24:24;15.00;99.90
22442;DHT22;11388;54.456;9.752;2022-10-24T03:26:50;14.90;99.90
22442;DHT22;11388;54.456;9.752;2022-10-24T03:29:17;14.90;99.90
22442;DHT22;11388;54.456;9.752;2022-10-24T03:31:43;14.80;99.90
22442;DHT22;11388;54.456;9.752;2022-10-24T03:34:09;14.80;99.90
22442;DHT22;11388;54.456;9.752;2022-10-24T03:36:34;14.90;99.90
22442;DHT22;11388;54.456;9.752;2022-10-24T03:39:00;14.80;99.90
22442;DHT22;11388;54.456;9.752;2022-10-24T03:41:26;14.80;99.90
22442;DHT22;11388;54.456;9.752;2022-10-24T03:43:52;14.80;99.90
22442;DHT22;11388;54.456;9.752;2022-10-24T03:46:17;14.70;99.90
22442;DHT22;11388;54.456;9.752;2022-10-24T03:48:43;14.70;99.90
22442;DHT22;11388;54.456;9.752;2022-10-24T03:51:09;14.70;99.90
22442;DHT22;11388;54.456;9.752;2022-10-24T03:53:35;14.70;99.90
22442;DHT22;11388;54.456;9.752;2022-10-24T03:56:00;14.70;99.90
22442;DHT22;11388;54.456;9.752;2022-10-24T03:58:27;14.60;99.90
22442;DHT22;11388;54.456;9.752;2022-10-24T04:00:52;14.60;99.90
22442;DHT22;11388;54.456;9.752;2022-10-24T04:03:19;14.60;99.90
22442;DHT22;11388;54.456;9.752;2022-10-24T04:05:45;14.50;99.90
22442;DHT22;11388;54.456;9.752;2022-10-24T04:08:11;14.60;99.90
22442;DHT22;11388;54.456;9.752;2022-10-24T04:10:37;14.50;99.90
22442;DHT22;11388;54.456;9.752;2022-10-24T04:13:02;14.40;99.90
22442;DHT22;11388;54.456;9.752;2022-10-24T04:15:28;14.40;99.90
22442;DHT22;11388;54.456;9.752;2022-10-24T04:17:54;14.30;99.90
22442;DHT22;11388;54.456;9.752;2022-10-24T04:20:45;14.30;99.90
22442;DHT22;11388;54.456;9.752;2022-10-24T04:23:10;14.30;99.90
22442;DHT22;11388;54.456;9.752;2022-10-24T04:25:36;14.30;99.90
22442;DHT22;11388;54.456;9.752;2022-10-24T04:28:02;14.20;99.90
22442;DHT22;11388;54.456;9.752;2022-10-24T04:30:28;14.20;99.90
22442;DHT22;11388;54.456;9.752;2022-10-24T04:32:54;14.20;99.90
22442;DHT22;11388;54.456;9.752;2022-10-24T04:35:21;14.20;99.90
22442;DHT22;11388;54.456;9.752;2022-10-24T04:37:47;14.20;99.90
22442;DHT22;11388;54.456;9.752;2022-10-24T04:40:13;14.20;99.90
22442;DHT22;11388;54.456;9.752;2022-10-24T04:42:38;14.20;99.90
22442;DHT22;11388;54.456;9.752;2022-10-24T04:45:05;14.20;99.90
22442;DHT22;11388;54.456;9.752;2022-10-24T04:47:31;14.20;99.90
22442;DHT22;11388;54.456;9.752;2022-10-24T04:49:57;14.20;99.90
22442;DHT22;11388;54.456;9.752;2022-10-24T04:52:23;14.20;99.90
22442;DHT22;11388;54.456;9.752;2022-10-24T04:54:48;14.10;99.90
22442;DHT22;11388;54.456;9.752;2022-10-24T04:57:14;14.10;99.90
22442;DHT22;11388;54.456;9.752;2022-10-24T04:59:40;14.10;99.90
22442;DHT22;11388;54.456;9.752;2022-10-24T05:05:23;14.10;99.90
22442;DHT22;11388;54.456;9.752;2022-10-24T05:07:49;14.10;99.90
22442;DHT22;11388;54.456;9.752;2022-10-24T05:10:15;14.10;99.90
22442;DHT22;11388;54.456;9.752;2022-10-24T05:12:41;14.10;99.90
22442;DHT22;11388;54.456;9.752;2022-10-24T05:15:08;14.00;99.90
22442;DHT22;11388;54.456;9.752;2022-10-24T05:17:34;14.10;99.90
22442;DHT22;11388;54.456;9.752;2022-10-24T05:20:00;14.00;99.90
22442;DHT22;11388;54.456;9.752;2022-10-24T05:22:26;14.00;99.90
22442;DHT22;11388;54.456;9.752;2022-10-24T05:24:52;14.00;99.90
22442;DHT22;11388;54.456;9.752;2022-10-24T05:27:18;14.00;99.90
22442;DHT22;11388;54.456;9.752;2022-10-24T05:29:53;14.00;99.90
22442;DHT22;11388;54.456;9.752;2022-10-24T05:32:20;14.00;99.90
22442;DHT22;11388;54.456;9.752;2022-10-24T05:34:46;14.00;99.90
22442;DHT22;11388;54.456;9.752;2022-10-24T05:37:12;14.00;99.90
22442;DHT22;11388;54.456;9.752;2022-10-24T05:39:37;14.00;99.90
22442;DHT22;11388;54.456;9.752;2022-10-24T05:42:03;14.00;99.90
22442;DHT22;11388;54.456;9.752;2022-10-24T05:44:29;14.00;99.90
22442;DHT22;11388;54.456;9.752;2022-10-24T05:46:55;14.00;99.90
22442;DHT22;11388;54.456;9.752;2022-10-24T05:49:21;13.90;99.90
22442;DHT22;11388;54.456;9.752;2022-10-24T05:51:46;13.90;99.90
22442;DHT22;11388;54.456;9.752;2022-10-24T05:54:12;13.80;99.90
22442;DHT22;11388;54.456;9.752;2022-10-24T05:56:38;13.90;99.90
22442;DHT22;11388;54.456;9.752;2022-10-24T05:59:03;13.90;99.90
22442;DHT22;11388;54.456;9.752;2022-10-24T06:01:30;13.90;99.90
22442;DHT22;11388;54.456;9.752;2022-10-24T06:03:55;14.00;99.90
22442;DHT22;11388;54.456;9.752;2022-10-24T06:06:21;13.90;99.90
22442;DHT22;11388;54.456;9.752;2022-10-24T06:08:48;13.90;99.90
22442;DHT22;11388;54.456;9.752;2022-10-24T06:11:14;13.90;99.90
22442;DHT22;11388;54.456;9.752;2022-10-24T06:13:40;13.90;99.90
22442;DHT22;11388;54.456;9.752;2022-10-24T06:16:07;13.90;99.90
22442;DHT22;11388;54.456;9.752;2022-10-24T06:18:38;13.90;99.90
22442;DHT22;11388;54.456;9.752;2022-10-24T06:21:05;13.90;99.90
22442;DHT22;11388;54.456;9.752;2022-10-24T06:23:31;13.80;99.90
22442;DHT22;11388;54.456;9.752;2022-10-24T06:25:57;13.80;99.90
22442;DHT22;11388;54.456;9.752;2022-10-24T06:28:23;13.80;99.90
22442;DHT22;11388;54.456;9.752;2022-10-24T06:30:50;13.80;99.90
22442;DHT22;11388;54.456;9.752;2022-10-24T06:33:16;13.90;99.90
22442;DHT22;11388;54.456;9.752;2022-10-24T06:35:42;13.90;99.90
22442;DHT22;11388;54.456;9.752;2022-10-24T06:38:08;13.90;99.90
22442;DHT22;11388;54.456;9.752;2022-10-24T06:40:36;13.90;99.90
22442;DHT22;11388;54.456;9.752;2022-10-24T06:43:02;13.90;99.90
22442;DHT22;11388;54.456;9.752;2022-10-24T06:45:27;14.00;99.90
22442;DHT22;11388;54.456;9.752;2022-10-24T06:47:53;14.00;99.90
22442;DHT22;11388;54.456;9.752;2022-10-24T06:50:19;14.00;99.90
22442;DHT22;11388;54.456;9.752;2022-10-24T06:52:44;14.10;99.90
22442;DHT22;11388;54.456;9.752;2022-10-24T06:55:10;14.10;99.90
22442;DHT22;11388;54.456;9.752;2022-10-24T06:57:36;14.20;99.90
22442;DHT22;11388;54.456;9.752;2022-10-24T07:00:03;14.20;99.90
22442;DHT22;11388;54.456;9.752;2022-10-24T07:02:29;14.20;99.90
22442;DHT22;11388;54.456;9.752;2022-10-24T07:04:56;14.30;99.90
22442;DHT22;11388;54.456;9.752;2022-10-24T07:07:22;14.30;99.90
22442;DHT22;11388;54.456;9.752;2022-10-24T07:09:56;14.30;99.90
22442;DHT22;11388;54.456;9.752;2022-10-24T07:12:24;14.30;99.90
22442;DHT22;11388;54.456;9.752;2022-10-24T07:14:50;14.40;99.90
22442;DHT22;11388;54.456;9.752;2022-10-24T07:17:16;14.40;99.90
22442;DHT22;11388;54.456;9.752;2022-10-24T07:19:42;14.50;99.90
22442;DHT22;11388;54.456;9.752;2022-10-24T07:22:08;14.60;99.90
22442;DHT22;11388;54.456;9.752;2022-10-24T07:24:37;14.60;99.90
22442;DHT22;11388;54.456;9.752;2022-10-24T07:27:02;14.80;99.90
22442;DHT22;11388;54.456;9.752;2022-10-24T07:29:28;14.80;99.90
22442;DHT22;11388;54.456;9.752;2022-10-24T07:31:54;14.80;99.90
22442;DHT22;11388;54.456;9.752;2022-10-24T07:34:20;14.90;99.90
22442;DHT22;11388;54.456;9.752;2022-10-24T07:36:45;14.90;99.90
22442;DHT22;11388;54.456;9.752;2022-10-24T07:39:14;14.90;99.90
22442;DHT22;11388;54.456;9.752;2022-10-24T07:41:40;15.00;99.90
22442;DHT22;11388;54.456;9.752;2022-10-24T07:46:57;15.10;99.90
22442;DHT22;11388;54.456;9.752;2022-10-24T07:49:24;15.20;99.90
22442;DHT22;11388;54.456;9.752;2022-10-24T07:52:02;15.30;99.90
22442;DHT22;11388;54.456;9.752;2022-10-24T07:54:54;15.40;99.90
22442;DHT22;11388;54.456;9.752;2022-10-24T07:57:20;15.50;99.90
22442;DHT22;11388;54.456;9.752;2022-10-24T07:59:46;15.50;99.90
22442;DHT22;11388;54.456;9.752;2022-10-24T08:02:13;15.60;99.90
22442;DHT22;11388;54.456;9.752;2022-10-24T08:04:39;15.50;99.90
22442;DHT22;11388;54.456;9.752;2022-10-24T08:07:06;15.60;99.90
22442;DHT22;11388;54.456;9.752;2022-10-24T08:10:35;15.60;99.90
22442;DHT22;11388;54.456;9.752;2022-10-24T08:13:03;15.60;99.90
22442;DHT22;11388;54.456;9.752;2022-10-24T08:15:31;15.60;99.90
22442;DHT22;11388;54.456;9.752;2022-10-24T08:18:04;15.60;99.90
22442;DHT22;11388;54.456;9.752;2022-10-24T08:20:30;15.70;99.90
22442;DHT22;11388;54.456;9.752;2022-10-24T08:22:56;15.80;99.90
22442;DHT22;11388;54.456;9.752;2022-10-24T08:25:22;15.80;99.90
22442;DHT22;11388;54.456;9.752;2022-10-24T08:27:48;15.80;99.90
22442;DHT22;11388;54.456;9.752;2022-10-24T08:30:13;15.90;99.90
22442;DHT22;11388;54.456;9.752;2022-10-24T08:32:39;15.90;99.90
22442;DHT22;11388;54.456;9.752;2022-10-24T08:35:06;15.90;99.90
22442;DHT22;11388;54.456;9.752;2022-10-24T08:37:35;16.00;99.90
22442;DHT22;11388;54.456;9.752;2022-10-24T08:40:07;16.00;99.90
22442;DHT22;11388;54.456;9.752;2022-10-24T08:42:34;16.00;99.90
22442;DHT22;11388;54.456;9.752;2022-10-24T08:45:00;16.10;99.90
22442;DHT22;11388;54.456;9.752;2022-10-24T08:50:20;16.20;99.90
22442;DHT22;11388;54.456;9.752;2022-10-24T08:52:47;16.30;99.90
22442;DHT22;11388;54.456;9.752;2022-10-24T08:55:18;16.30;99.90
22442;DHT22;11388;54.456;9.752;2022-10-24T08:57:49;16.20;99.90
22442;DHT22;11388;54.456;9.752;2022-10-24T09:00:20;16.30;99.90
22442;DHT22;11388;54.456;9.752;2022-10-24T09:02:57;16.40;99.90
22442;DHT22;11388;54.456;9.752;2022-10-24T09:05:32;16.40;99.90
22442;DHT22;11388;54.456;9.752;2022-10-24T09:08:21;16.50;99.90
22442;DHT22;11388;54.456;9.752;2022-10-24T09:10:56;16.50;99.90
22442;DHT22;11388;54.456;9.752;2022-10-24T09:13:26;16.60;99.90
22442;DHT22;11388;54.456;9.752;2022-10-24T09:15:52;16.70;99.90
22442;DHT22;11388;54.456;9.752;2022-10-24T09:18:30;16.60;99.90
22442;DHT22;11388;54.456;9.752;2022-10-24T09:20:57;16.60;99.90
22442;DHT22;11388;54.456;9.752;2022-10-24T09:23:24;16.70;99.90
22442;DHT22;11388;54.456;9.752;2022-10-24T09:25:53;16.90;99.90
22442;DHT22;11388;54.456;9.752;2022-10-24T09:28:20;16.90;99.90
22442;DHT22;11388;54.456;9.752;2022-10-24T09:30:47;17.00;99.90
22442;DHT22;11388;54.456;9.752;2022-10-24T09:33:34;17.00;99.90
22442;DHT22;11388;54.456;9.752;2022-10-24T09:36:02;17.00;99.90
22442;DHT22;11388;54.456;9.752;2022-10-24T09:38:34;17.00;99.90
22442;DHT22;11388;54.456;9.752;2022-10-24T09:41:03;17.00;99.90
22442;DHT22;11388;54.456;9.752;2022-10-24T09:43:39;17.10;99.90
22442;DHT22;11388;54.456;9.752;2022-10-24T09:46:17;17.10;99.90
22442;DHT22;11388;54.456;9.752;2022-10-24T09:51:35;17.10;99.90
22442;DHT22;11388;54.456;9.752;2022-10-24T09:59:33;17.40;99.90
22442;DHT22;11388;54.456;9.752;2022-10-24T10:05:21;17.70;99.90
22442;DHT22;11388;54.456;9.752;2022-10-24T10:07:48;17.60;99.90
22442;DHT22;11388;54.456;9.752;2022-10-24T10:12:47;17.40;99.90
22442;DHT22;11388;54.456;9.752;2022-10-24T10:15:38;17.30;99.90
22442;DHT22;11388;54.456;9.752;2022-10-24T10:18:28;17.50;99.90
22442;DHT22;11388;54.456;9.752;2022-10-24T10:24:35;17.70;99.90
22442;DHT22;11388;54.456;9.752;2022-10-24T10:29:48;17.70;99.90
22442;DHT22;11388;54.456;9.752;2022-10-24T10:32:23;17.70;99.90
22442;DHT22;11388;54.456;9.752;2022-10-24T10:35:04;17.80;99.90
22442;DHT22;11388;54.456;9.752;2022-10-24T10:37:44;17.80;99.90
22442;DHT22;11388;54.456;9.752;2022-10-24T10:40:36;17.80;99.90
22442;DHT22;11388;54.456;9.752;2022-10-24T10:48:47;17.90;99.90
22442;DHT22;11388;54.456;9.752;2022-10-24T10:51:45;18.00;99.90
22442;DHT22;11388;54.456;9.752;2022-10-24T10:54:19;18.00;99.90
22442;DHT22;11388;54.456;9.752;2022-10-24T10:56:54;17.90;99.90
22442;DHT22;11388;54.456;9.752;2022-10-24T11:08:09;18.20;99.90
22442;DHT22;11388;54.456;9.752;2022-10-24T11:10:40;18.10;99.90
22442;DHT22;11388;54.456;9.752;2022-10-24T11:13:22;18.00;99.90
22442;DHT22;11388;54.456;9.752;2022-10-24T11:15:52;18.00;99.90
22442;DHT22;11388;54.456;9.752;2022-10-24T11:18:25;18.10;99.90
22442;DHT22;11388;54.456;9.752;2022-10-24T11:21:09;18.10;99.90
22442;DHT22;11388;54.456;9.752;2022-10-24T11:23:55;18.10;99.90
22442;DHT22;11388;54.456;9.752;2022-10-24T11:26:35;18.10;99.90
22442;DHT22;11388;54.456;9.752;2022-10-24T11:29:26;18.20;99.90
22442;DHT22;11388;54.456;9.752;2022-10-24T11:32:04;18.20;99.90
22442;DHT22;11388;54.456;9.752;2022-10-24T11:34:55;18.30;99.90
22442;DHT22;11388;54.456;9.752;2022-10-24T11:51:34;18.30;99.90
22442;DHT22;11388;54.456;9.752;2022-10-24T11:57:15;18.40;99.90
22442;DHT22;11388;54.456;9.752;2022-10-24T11:59:46;18.70;99.90
22442;DHT22;11388;54.456;9.752;2022-10-24T12:08:17;18.60;99.90
22442;DHT22;11388;54.456;9.752;2022-10-24T12:19:16;18.20;99.90
22442;DHT22;11388;54.456;9.752;2022-10-24T12:21:51;18.20;99.90
22442;DHT22;11388;54.456;9.752;2022-10-24T12:24:30;18.20;99.90
22442;DHT22;11388;54.456;9.752;2022-10-24T12:27:19;18.10;99.90
22442;DHT22;11388;54.456;9.752;2022-10-24T12:30:04;18.00;99.90
22442;DHT22;11388;54.456;9.752;2022-10-24T12:32:45;18.30;99.90
22442;DHT22;11388;54.456;9.752;2022-10-24T12:35:34;18.40;99.90
22442;DHT22;11388;54.456;9.752;2022-10-24T12:38:17;18.30;99.90
22442;DHT22;11388;54.456;9.752;2022-10-24T12:40:51;18.30;99.90
22442;DHT22;11388;54.456;9.752;2022-10-24T12:43:36;18.30;99.90
22442;DHT22;11388;54.456;9.752;2022-10-24T12:51:29;18.10;99.90
22442;DHT22;11388;54.456;9.752;2022-10-24T12:54:16;18.20;99.90
22442;DHT22;11388;54.456;9.752;2022-10-24T12:59:25;18.30;99.90
22442;DHT22;11388;54.456;9.752;2022-10-24T13:10:36;18.20;99.90
22442;DHT22;11388;54.456;9.752;2022-10-24T13:18:56;18.10;99.90
22442;DHT22;11388;54.456;9.752;2022-10-24T13:21:32;17.90;99.90
22442;DHT22;11388;54.456;9.752;2022-10-24T13:26:49;17.90;99.90
22442;DHT22;11388;54.456;9.752;2022-10-24T13:31:53;17.80;99.90
22442;DHT22;11388;54.456;9.752;2022-10-24T13:34:26;17.80;99.90
22442;DHT22;11388;54.456;9.752;2022-10-24T13:39:37;17.70;99.90
22442;DHT22;11388;54.456;9.752;2022-10-24T13:42:26;17.90;99.90
22442;DHT22;11388;54.456;9.752;2022-10-24T13:44:59;17.90;99.90
22442;DHT22;11388;54.456;9.752;2022-10-24T13:47:31;18.00;99.90
22442;DHT22;11388;54.456;9.752;2022-10-24T13:52:46;18.00;99.90
22442;DHT22;11388;54.456;9.752;2022-10-24T13:55:22;18.00;99.90
22442;DHT22;11388;54.456;9.752;2022-10-24T13:57:54;18.00;99.90
22442;DHT22;11388;54.456;9.752;2022-10-24T14:00:27;18.00;99.90
22442;DHT22;11388;54.456;9.752;2022-10-24T14:02:55;18.00;99.90
22442;DHT22;11388;54.456;9.752;2022-10-24T14:05:33;17.90;99.90
22442;DHT22;11388;54.456;9.752;2022-10-24T14:08:00;17.90;99.90
22442;DHT22;11388;54.456;9.752;2022-10-24T14:10:27;17.90;99.90
22442;DHT22;11388;54.456;9.752;2022-10-24T14:12:55;17.80;99.90
22442;DHT22;11388;54.456;9.752;2022-10-24T14:15:27;17.80;99.90
22442;DHT22;11388;54.456;9.752;2022-10-24T14:18:11;17.90;99.90
22442;DHT22;11388;54.456;9.752;2022-10-24T14:20:39;17.90;99.90
22442;DHT22;11388;54.456;9.752;2022-10-24T14:23:34;17.90;99.90
22442;DHT22;11388;54.456;9.752;2022-10-24T14:28:32;17.60;99.90
22442;DHT22;11388;54.456;9.752;2022-10-24T14:31:01;17.50;99.90
22442;DHT22;11388;54.456;9.752;2022-10-24T14:33:30;17.40;99.90
22442;DHT22;11388;54.456;9.752;2022-10-24T14:35:59;17.30;99.90
22442;DHT22;11388;54.456;9.752;2022-10-24T14:38:27;17.40;99.90
22442;DHT22;11388;54.456;9.752;2022-10-24T14:40:54;17.20;99.90
22442;DHT22;11388;54.456;9.752;2022-10-24T14:43:28;17.10;99.90
22442;DHT22;11388;54.456;9.752;2022-10-24T14:46:06;17.00;99.90
22442;DHT22;11388;54.456;9.752;2022-10-24T14:48:33;16.90;99.90
22442;DHT22;11388;54.456;9.752;2022-10-24T14:51:04;17.00;99.90
22442;DHT22;11388;54.456;9.752;2022-10-24T14:53:33;17.00;99.90
22442;DHT22;11388;54.456;9.752;2022-10-24T14:56:05;16.90;99.90
22442;DHT22;11388;54.456;9.752;2022-10-24T14:58:39;17.00;99.90
22442;DHT22;11388;54.456;9.752;2022-10-24T15:01:05;16.90;99.90
22442;DHT22;11388;54.456;9.752;2022-10-24T15:03:30;16.90;99.90
22442;DHT22;11388;54.456;9.752;2022-10-24T15:06:07;17.00;99.90
22442;DHT22;11388;54.456;9.752;2022-10-24T15:08:38;16.90;99.90
22442;DHT22;11388;54.456;9.752;2022-10-24T15:11:21;16.90;99.90
22442;DHT22;11388;54.456;9.752;2022-10-24T15:13:52;16.90;99.90
22442;DHT22;11388;54.456;9.752;2022-10-24T15:16:27;16.80;99.90
22442;DHT22;11388;54.456;9.752;2022-10-24T15:18:56;16.80;99.90
22442;DHT22;11388;54.456;9.752;2022-10-24T15:21:25;16.70;99.90
22442;DHT22;11388;54.456;9.752;2022-10-24T15:23:57;16.70;99.90
22442;DHT22;11388;54.456;9.752;2022-10-24T15:26:33;16.70;99.90
22442;DHT22;11388;54.456;9.752;2022-10-24T15:29:04;16.60;99.90
22442;DHT22;11388;54.456;9.752;2022-10-24T15:31:42;16.50;99.90
22442;DHT22;11388;54.456;9.752;2022-10-24T15:34:14;16.50;99.90
22442;DHT22;11388;54.456;9.752;2022-10-24T15:36:40;16.40;99.90
22442;DHT22;11388;54.456;9.752;2022-10-24T15:41:36;16.40;99.90
22442;DHT22;11388;54.456;9.752;2022-10-24T15:44:20;16.40;99.90
22442;DHT22;11388;54.456;9.752;2022-10-24T15:46:47;16.40;99.90
22442;DHT22;11388;54.456;9.752;2022-10-24T15:49:13;16.50;99.90
22442;DHT22;11388;54.456;9.752;2022-10-24T15:51:41;16.50;99.90
22442;DHT22;11388;54.456;9.752;2022-10-24T15:54:11;16.60;99.90
22442;DHT22;11388;54.456;9.752;2022-10-24T15:56:37;16.40;99.90
22442;DHT22;11388;54.456;9.752;2022-10-24T15:59:03;16.30;99.90
22442;DHT22;11388;54.456;9.752;2022-10-24T16:01:34;16.20;99.90
22442;DHT22;11388;54.456;9.752;2022-10-24T16:04:01;15.90;99.90
22442;DHT22;11388;54.456;9.752;2022-10-24T16:06:27;15.20;99.90
22442;DHT22;11388;54.456;9.752;2022-10-24T16:08:54;14.80;99.90
22442;DHT22;11388;54.456;9.752;2022-10-24T16:11:20;14.50;99.90
22442;DHT22;11388;54.456;9.752;2022-10-24T16:13:46;14.40;99.90
22442;DHT22;11388;54.456;9.752;2022-10-24T16:16:12;14.40;99.90
22442;DHT22;11388;54.456;9.752;2022-10-24T16:18:38;14.40;99.90
22442;DHT22;11388;54.456;9.752;2022-10-24T16:21:04;14.40;99.90
22442;DHT22;11388;54.456;9.752;2022-10-24T16:23:31;14.30;99.90
22442;DHT22;11388;54.456;9.752;2022-10-24T16:25:59;14.20;99.90
22442;DHT22;11388;54.456;9.752;2022-10-24T16:28:27;14.20;99.90
22442;DHT22;11388;54.456;9.752;2022-10-24T16:30:56;14.30;99.90
22442;DHT22;11388;54.456;9.752;2022-10-24T16:33:22;14.40;99.90
22442;DHT22;11388;54.456;9.752;2022-10-24T16:35:47;14.30;99.90
22442;DHT22;11388;54.456;9.752;2022-10-24T16:38:13;14.30;99.90
22442;DHT22;11388;54.456;9.752;2022-10-24T16:40:41;14.40;99.90
22442;DHT22;11388;54.456;9.752;2022-10-24T16:43:10;14.40;99.90
22442;DHT22;11388;54.456;9.752;2022-10-24T16:45:36;14.40;99.90
22442;DHT22;11388;54.456;9.752;2022-10-24T16:48:02;14.40;99.90
22442;DHT22;11388;54.456;9.752;2022-10-24T16:50:29;14.40;99.90
22442;DHT22;11388;54.456;9.752;2022-10-24T16:52:58;14.40;99.90
22442;DHT22;11388;54.456;9.752;2022-10-24T16:55:25;14.30;99.90
22442;DHT22;11388;54.456;9.752;2022-10-24T16:57:51;14.30;99.90
22442;DHT22;11388;54.456;9.752;2022-10-24T17:00:18;14.40;99.90
22442;DHT22;11388;54.456;9.752;2022-10-24T17:02:46;14.40;99.90
22442;DHT22;11388;54.456;9.752;2022-10-24T17:05:13;14.40;99.90
22442;DHT22;11388;54.456;9.752;2022-10-24T17:07:40;14.40;99.90
22442;DHT22;11388;54.456;9.752;2022-10-24T17:10:14;14.40;99.90
22442;DHT22;11388;54.456;9.752;2022-10-24T17:12:42;14.40;99.90
22442;DHT22;11388;54.456;9.752;2022-10-24T17:15:09;14.40;99.90
22442;DHT22;11388;54.456;9.752;2022-10-24T17:17:35;14.40;99.90
22442;DHT22;11388;54.456;9.752;2022-10-24T17:20:01;14.60;99.90
22442;DHT22;11388;54.456;9.752;2022-10-24T17:22:27;14.60;99.90
22442;DHT22;11388;54.456;9.752;2022-10-24T17:24:53;14.60;99.90
22442;DHT22;11388;54.456;9.752;2022-10-24T17:27:20;14.60;99.90
22442;DHT22;11388;54.456;9.752;2022-10-24T17:29:47;14.50;99.90
22442;DHT22;11388;54.456;9.752;2022-10-24T17:32:13;14.60;99.90
22442;DHT22;11388;54.456;9.752;2022-10-24T17:34:40;14.50;99.90
22442;DHT22;11388;54.456;9.752;2022-10-24T17:37:20;14.50;99.90
22442;DHT22;11388;54.456;9.752;2022-10-24T17:40:11;14.50;99.90
22442;DHT22;11388;54.456;9.752;2022-10-24T17:42:38;14.50;99.90
22442;DHT22;11388;54.456;9.752;2022-10-24T17:45:05;14.50;99.90
22442;DHT22;11388;54.456;9.752;2022-10-24T17:47:31;14.50;99.90
22442;DHT22;11388;54.456;9.752;2022-10-24T17:49:57;14.40;99.90
22442;DHT22;11388;54.456;9.752;2022-10-24T17:52:23;14.40;99.90
22442;DHT22;11388;54.456;9.752;2022-10-24T17:54:50;14.40;99.90
22442;DHT22;11388;54.456;9.752;2022-10-24T17:57:15;14.50;99.90
22442;DHT22;11388;54.456;9.752;2022-10-24T17:59:41;14.50;99.90
22442;DHT22;11388;54.456;9.752;2022-10-24T18:02:23;14.60;99.90
22442;DHT22;11388;54.456;9.752;2022-10-24T18:04:50;14.60;99.90
22442;DHT22;11388;54.456;9.752;2022-10-24T18:07:16;14.70;99.90
22442;DHT22;11388;54.456;9.752;2022-10-24T18:09:41;14.60;99.90
22442;DHT22;11388;54.456;9.752;2022-10-24T18:12:07;14.50;99.90
22442;DHT22;11388;54.456;9.752;2022-10-24T18:14:35;14.50;99.90
22442;DHT22;11388;54.456;9.752;2022-10-24T18:17:02;14.40;99.90